Sheikhupura Weather



Sheikhupura's Current Weather

Temprature 4o fog

fog

Rain: 0 %

Min Temprature4o
Max Temprature4o
Humidity100
Wind Speed1.03 m/h
Sun Rise07:03:32
Sun Set17:25:00
Current Time: 18-Jan-2021 06:31:03
Lat/Lon: 31.7131, 73.9783




Sheikhupura's Geo Location



Sheikhupura's Weather Forecast

Time Overall Temp Min Temp Max Temp Humidity Wind Speed Rain
18-Jan-2021 (Mon)
08:00:00 scattered clouds 5.990 5.990 8.080 86 2.01 m/h 0 %
11:00:00 few clouds 13.560 13.560 16.200 52 2.07 m/h 0 %
14:00:00 clear sky 18.970 18.970 19.990 33 1.09 m/h 0 %
17:00:00 clear sky 16.000 16.000 16.100 38 1.4 m/h 0 %
20:00:00 clear sky 12.340 12.340 12.340 46 2.04 m/h 0 %
23:00:00 clear sky 10.780 10.780 10.780 51 1.25 m/h 0 %
19-Jan-2021 (Tue)
02:00:00 clear sky 9.620 9.620 9.620 55 2.23 m/h 0 %
05:00:00 clear sky 8.460 8.460 8.460 59 1.47 m/h 0 %
08:00:00 clear sky 9.900 9.900 9.900 58 0.76 m/h 0 %
11:00:00 clear sky 17.810 17.810 17.810 36 2.21 m/h 0 %
14:00:00 clear sky 21.460 21.460 21.460 26 2.64 m/h 0 %
17:00:00 clear sky 17.710 17.710 17.710 34 2 m/h 0 %
20:00:00 clear sky 13.300 13.300 13.300 39 1.72 m/h 0 %
23:00:00 clear sky 11.790 11.790 11.790 43 1.77 m/h 0 %
20-Jan-2021 (Wed)
02:00:00 clear sky 10.480 10.480 10.480 47 2.05 m/h 0 %
05:00:00 clear sky 9.630 9.630 9.630 49 2.15 m/h 0 %
08:00:00 clear sky 10.240 10.240 10.240 47 2.14 m/h 0 %
11:00:00 clear sky 19.470 19.470 19.470 26 2.98 m/h 0 %
14:00:00 clear sky 23.540 23.540 23.540 20 4.2 m/h 0 %
17:00:00 clear sky 18.500 18.500 18.500 29 1.96 m/h 0 %
20:00:00 clear sky 13.760 13.760 13.760 36 2.26 m/h 0 %
23:00:00 scattered clouds 11.880 11.880 11.880 40 1.98 m/h 0 %
21-Jan-2021 (Thu)
02:00:00 scattered clouds 10.510 10.510 10.510 43 2.14 m/h 0 %
05:00:00 few clouds 9.660 9.660 9.660 46 2.22 m/h 0 %
08:00:00 clear sky 10.320 10.320 10.320 45 1.69 m/h 0 %
11:00:00 clear sky 19.110 19.110 19.110 26 2.2 m/h 0 %
14:00:00 clear sky 23.240 23.240 23.240 20 2.54 m/h 0 %
17:00:00 clear sky 18.420 18.420 18.420 28 1.09 m/h 0 %
20:00:00 scattered clouds 14.150 14.150 14.150 35 1.11 m/h 0 %
23:00:00 scattered clouds 13.200 13.200 13.200 37 2.54 m/h 0 %
22-Jan-2021 (Fri)
02:00:00 clear sky 11.520 11.520 11.520 42 3.18 m/h 0 %
05:00:00 scattered clouds 10.240 10.240 10.240 45 2.75 m/h 0 %
08:00:00 few clouds 10.830 10.830 10.830 45 2.18 m/h 0 %
11:00:00 scattered clouds 19.390 19.390 19.390 26 2.87 m/h 0 %
14:00:00 overcast clouds 23.780 23.780 23.780 20 2.79 m/h 0 %
17:00:00 overcast clouds 20.080 20.080 20.080 28 3.08 m/h 0 %
20:00:00 scattered clouds 14.500 14.500 14.500 46 4.1 m/h 0 %
23:00:00 scattered clouds 13.080 13.080 13.080 47 4.26 m/h 0 %
23-Jan-2021 (Sat)
02:00:00 broken clouds 11.620 11.620 11.620 49 2.89 m/h 0 %
05:00:00 scattered clouds 11.060 11.060 11.060 51 3.64 m/h 0 %

Famous Cities (60)